sensor_id;sensor_type;location;lat;lon;timestamp;temperature;humidity
13585;DHT22;6863;48.402;9.994;2022-08-19T00:01:33;17.80;99.90
13585;DHT22;6863;48.402;9.994;2022-08-19T00:04:00;17.80;99.90
13585;DHT22;6863;48.402;9.994;2022-08-19T00:06:28;17.80;99.90
13585;DHT22;6863;48.402;9.994;2022-08-19T00:08:54;17.80;99.90
13585;DHT22;6863;48.402;9.994;2022-08-19T00:11:20;17.80;99.90
13585;DHT22;6863;48.402;9.994;2022-08-19T00:13:46;17.80;99.90
13585;DHT22;6863;48.402;9.994;2022-08-19T00:16:14;17.80;99.90
13585;DHT22;6863;48.402;9.994;2022-08-19T00:18:39;17.80;99.90
13585;DHT22;6863;48.402;9.994;2022-08-19T00:21:05;17.90;99.90
13585;DHT22;6863;48.402;9.994;2022-08-19T00:23:34;18.00;99.90
13585;DHT22;6863;48.402;9.994;2022-08-19T00:26:02;18.00;99.90
13585;DHT22;6863;48.402;9.994;2022-08-19T00:28:28;18.10;99.90
13585;DHT22;6863;48.402;9.994;2022-08-19T00:30:54;18.10;99.90
13585;DHT22;6863;48.402;9.994;2022-08-19T00:33:21;18.20;99.90
13585;DHT22;6863;48.402;9.994;2022-08-19T00:35:46;18.20;99.90
13585;DHT22;6863;48.402;9.994;2022-08-19T00:38:12;18.20;99.90
13585;DHT22;6863;48.402;9.994;2022-08-19T00:40:38;18.20;99.90
13585;DHT22;6863;48.402;9.994;2022-08-19T00:43:10;18.20;99.90
13585;DHT22;6863;48.402;9.994;2022-08-19T00:45:39;18.20;99.90
13585;DHT22;6863;48.402;9.994;2022-08-19T00:48:07;18.20;99.90
13585;DHT22;6863;48.402;9.994;2022-08-19T00:50:33;18.10;99.90
13585;DHT22;6863;48.402;9.994;2022-08-19T00:53:00;18.10;99.90
13585;DHT22;6863;48.402;9.994;2022-08-19T00:55:30;18.20;99.90
13585;DHT22;6863;48.402;9.994;2022-08-19T00:58:04;18.20;99.90
13585;DHT22;6863;48.402;9.994;2022-08-19T01:00:31;18.20;99.90
13585;DHT22;6863;48.402;9.994;2022-08-19T01:03:05;18.10;99.90
13585;DHT22;6863;48.402;9.994;2022-08-19T01:05:32;18.10;99.90
13585;DHT22;6863;48.402;9.994;2022-08-19T01:07:59;18.20;99.90
13585;DHT22;6863;48.402;9.994;2022-08-19T01:10:30;18.20;99.90
13585;DHT22;6863;48.402;9.994;2022-08-19T01:12:58;18.20;99.90
13585;DHT22;6863;48.402;9.994;2022-08-19T01:15:29;18.10;99.90
13585;DHT22;6863;48.402;9.994;2022-08-19T01:17:57;18.10;99.90
13585;DHT22;6863;48.402;9.994;2022-08-19T01:20:24;18.10;99.90
13585;DHT22;6863;48.402;9.994;2022-08-19T01:22:57;18.10;99.90
13585;DHT22;6863;48.402;9.994;2022-08-19T01:25:31;18.10;99.90
13585;DHT22;6863;48.402;9.994;2022-08-19T01:27:58;18.10;99.90
13585;DHT22;6863;48.402;9.994;2022-08-19T01:30:29;18.10;99.90
13585;DHT22;6863;48.402;9.994;2022-08-19T01:32:55;18.00;99.90
13585;DHT22;6863;48.402;9.994;2022-08-19T01:35:23;18.00;99.90
13585;DHT22;6863;48.402;9.994;2022-08-19T01:38:00;18.10;99.90
13585;DHT22;6863;48.402;9.994;2022-08-19T01:40:29;18.20;99.90
13585;DHT22;6863;48.402;9.994;2022-08-19T01:42:56;18.20;99.90
13585;DHT22;6863;48.402;9.994;2022-08-19T01:45:24;18.30;99.90
13585;DHT22;6863;48.402;9.994;2022-08-19T01:47:50;18.30;99.90
13585;DHT22;6863;48.402;9.994;2022-08-19T01:50:16;18.30;99.90
13585;DHT22;6863;48.402;9.994;2022-08-19T01:55:19;18.30;99.90
13585;DHT22;6863;48.402;9.994;2022-08-19T01:57:52;18.30;99.90
13585;DHT22;6863;48.402;9.994;2022-08-19T02:00:23;18.20;99.90
13585;DHT22;6863;48.402;9.994;2022-08-19T02:02:49;18.20;99.90
13585;DHT22;6863;48.402;9.994;2022-08-19T02:05:15;18.20;99.90
13585;DHT22;6863;48.402;9.994;2022-08-19T02:07:41;18.20;99.90
13585;DHT22;6863;48.402;9.994;2022-08-19T02:10:11;18.20;99.90
13585;DHT22;6863;48.402;9.994;2022-08-19T02:12:37;18.20;99.90
13585;DHT22;6863;48.402;9.994;2022-08-19T02:15:03;18.10;99.90
13585;DHT22;6863;48.402;9.994;2022-08-19T02:17:30;18.00;99.90
13585;DHT22;6863;48.402;9.994;2022-08-19T02:19:56;18.00;99.90
13585;DHT22;6863;48.402;9.994;2022-08-19T02:22:23;18.00;99.90
13585;DHT22;6863;48.402;9.994;2022-08-19T02:24:51;17.90;99.90
13585;DHT22;6863;48.402;9.994;2022-08-19T02:27:17;18.00;99.90
13585;DHT22;6863;48.402;9.994;2022-08-19T02:29:43;18.00;99.90
13585;DHT22;6863;48.402;9.994;2022-08-19T02:32:08;18.00;99.90
13585;DHT22;6863;48.402;9.994;2022-08-19T02:34:34;18.00;99.90
13585;DHT22;6863;48.402;9.994;2022-08-19T02:37:00;17.90;99.90
13585;DHT22;6863;48.402;9.994;2022-08-19T02:39:25;17.90;99.90
13585;DHT22;6863;48.402;9.994;2022-08-19T02:41:51;18.00;99.90
13585;DHT22;6863;48.402;9.994;2022-08-19T02:44:17;18.00;99.90
13585;DHT22;6863;48.402;9.994;2022-08-19T02:46:46;17.90;99.90
13585;DHT22;6863;48.402;9.994;2022-08-19T02:49:12;18.00;99.90
13585;DHT22;6863;48.402;9.994;2022-08-19T02:51:42;17.90;99.90
13585;DHT22;6863;48.402;9.994;2022-08-19T02:54:11;17.90;99.90
13585;DHT22;6863;48.402;9.994;2022-08-19T02:56:39;17.80;99.90
13585;DHT22;6863;48.402;9.994;2022-08-19T02:59:05;17.80;99.90
13585;DHT22;6863;48.402;9.994;2022-08-19T03:01:34;17.80;99.90
13585;DHT22;6863;48.402;9.994;2022-08-19T03:04:03;17.70;99.90
13585;DHT22;6863;48.402;9.994;2022-08-19T03:06:29;17.70;99.90
13585;DHT22;6863;48.402;9.994;2022-08-19T03:08:56;17.70;99.90
13585;DHT22;6863;48.402;9.994;2022-08-19T03:11:30;17.60;99.90
13585;DHT22;6863;48.402;9.994;2022-08-19T03:13:57;17.70;99.90
13585;DHT22;6863;48.402;9.994;2022-08-19T03:16:28;17.70;99.90
13585;DHT22;6863;48.402;9.994;2022-08-19T03:18:56;17.70;99.90
13585;DHT22;6863;48.402;9.994;2022-08-19T03:21:27;17.70;99.90
13585;DHT22;6863;48.402;9.994;2022-08-19T03:23:55;17.70;99.90
13585;DHT22;6863;48.402;9.994;2022-08-19T03:26:21;17.70;99.90
13585;DHT22;6863;48.402;9.994;2022-08-19T03:28:47;17.80;99.90
13585;DHT22;6863;48.402;9.994;2022-08-19T03:31:16;17.80;99.90
13585;DHT22;6863;48.402;9.994;2022-08-19T03:33:42;17.80;99.90
13585;DHT22;6863;48.402;9.994;2022-08-19T03:36:14;17.80;99.90
13585;DHT22;6863;48.402;9.994;2022-08-19T03:38:42;17.80;99.90
13585;DHT22;6863;48.402;9.994;2022-08-19T03:41:15;17.70;99.90
13585;DHT22;6863;48.402;9.994;2022-08-19T03:43:41;17.70;99.90
13585;DHT22;6863;48.402;9.994;2022-08-19T03:46:13;17.70;99.90
13585;DHT22;6863;48.402;9.994;2022-08-19T03:48:41;17.70;99.90
13585;DHT22;6863;48.402;9.994;2022-08-19T03:51:07;17.70;99.90
13585;DHT22;6863;48.402;9.994;2022-08-19T03:53:34;17.70;99.90
13585;DHT22;6863;48.402;9.994;2022-08-19T03:56:00;17.70;99.90
13585;DHT22;6863;48.402;9.994;2022-08-19T03:58:28;17.70;99.90
13585;DHT22;6863;48.402;9.994;2022-08-19T04:00:58;17.70;99.90
13585;DHT22;6863;48.402;9.994;2022-08-19T04:03:25;17.70;99.90
13585;DHT22;6863;48.402;9.994;2022-08-19T04:05:52;17.80;99.90
13585;DHT22;6863;48.402;9.994;2022-08-19T04:08:18;17.80;99.90
13585;DHT22;6863;48.402;9.994;2022-08-19T04:10:48;17.90;99.90
13585;DHT22;6863;48.402;9.994;2022-08-19T04:13:16;17.80;99.90
13585;DHT22;6863;48.402;9.994;2022-08-19T04:15:43;17.80;99.90
13585;DHT22;6863;48.402;9.994;2022-08-19T04:18:10;17.80;99.90
13585;DHT22;6863;48.402;9.994;2022-08-19T04:20:46;17.80;99.90
13585;DHT22;6863;48.402;9.994;2022-08-19T04:23:14;17.80;99.90
13585;DHT22;6863;48.402;9.994;2022-08-19T04:25:41;17.80;99.90
13585;DHT22;6863;48.402;9.994;2022-08-19T04:28:08;17.90;99.90
13585;DHT22;6863;48.402;9.994;2022-08-19T04:30:50;17.90;99.90
13585;DHT22;6863;48.402;9.994;2022-08-19T04:33:21;17.90;99.90
13585;DHT22;6863;48.402;9.994;2022-08-19T04:35:48;17.90;99.90
13585;DHT22;6863;48.402;9.994;2022-08-19T04:38:16;17.90;99.90
13585;DHT22;6863;48.402;9.994;2022-08-19T04:40:43;17.90;99.90
13585;DHT22;6863;48.402;9.994;2022-08-19T04:43:29;17.90;99.90
13585;DHT22;6863;48.402;9.994;2022-08-19T04:45:55;17.90;99.90
13585;DHT22;6863;48.402;9.994;2022-08-19T04:48:21;17.80;99.90
13585;DHT22;6863;48.402;9.994;2022-08-19T04:50:58;17.80;99.90
13585;DHT22;6863;48.402;9.994;2022-08-19T04:53:32;17.80;99.90
13585;DHT22;6863;48.402;9.994;2022-08-19T04:55:59;17.80;99.90
13585;DHT22;6863;48.402;9.994;2022-08-19T04:58:27;17.80;99.90
13585;DHT22;6863;48.402;9.994;2022-08-19T05:00:53;17.80;99.90
13585;DHT22;6863;48.402;9.994;2022-08-19T05:03:20;17.80;99.90
13585;DHT22;6863;48.402;9.994;2022-08-19T05:05:47;17.80;99.90
13585;DHT22;6863;48.402;9.994;2022-08-19T05:08:18;17.80;99.90
13585;DHT22;6863;48.402;9.994;2022-08-19T05:10:49;17.90;99.90
13585;DHT22;6863;48.402;9.994;2022-08-19T05:13:16;17.90;99.90
13585;DHT22;6863;48.402;9.994;2022-08-19T05:15:43;17.90;99.90
13585;DHT22;6863;48.402;9.994;2022-08-19T05:18:08;17.90;99.90
13585;DHT22;6863;48.402;9.994;2022-08-19T05:20:52;17.90;99.90
13585;DHT22;6863;48.402;9.994;2022-08-19T05:23:37;17.90;99.90
13585;DHT22;6863;48.402;9.994;2022-08-19T05:26:03;17.90;99.90
13585;DHT22;6863;48.402;9.994;2022-08-19T05:28:29;17.90;99.90
13585;DHT22;6863;48.402;9.994;2022-08-19T05:30:55;17.90;99.90
13585;DHT22;6863;48.402;9.994;2022-08-19T05:33:22;17.80;99.90
13585;DHT22;6863;48.402;9.994;2022-08-19T05:35:48;17.80;99.90
13585;DHT22;6863;48.402;9.994;2022-08-19T05:38:18;17.80;99.90
13585;DHT22;6863;48.402;9.994;2022-08-19T05:40:43;17.80;99.90
13585;DHT22;6863;48.402;9.994;2022-08-19T05:43:12;17.80;99.90
13585;DHT22;6863;48.402;9.994;2022-08-19T05:45:42;17.90;99.90
13585;DHT22;6863;48.402;9.994;2022-08-19T05:48:09;18.00;99.90
13585;DHT22;6863;48.402;9.994;2022-08-19T05:50:37;18.00;99.90
13585;DHT22;6863;48.402;9.994;2022-08-19T05:53:04;18.00;99.90
13585;DHT22;6863;48.402;9.994;2022-08-19T05:55:29;18.00;99.90
13585;DHT22;6863;48.402;9.994;2022-08-19T05:57:55;18.00;99.90
13585;DHT22;6863;48.402;9.994;2022-08-19T06:00:21;18.00;99.90
13585;DHT22;6863;48.402;9.994;2022-08-19T06:02:46;18.00;99.90
13585;DHT22;6863;48.402;9.994;2022-08-19T06:05:12;18.00;99.90
13585;DHT22;6863;48.402;9.994;2022-08-19T06:07:39;18.00;99.90
13585;DHT22;6863;48.402;9.994;2022-08-19T06:10:07;18.00;99.90
13585;DHT22;6863;48.402;9.994;2022-08-19T06:12:34;17.90;99.90
13585;DHT22;6863;48.402;9.994;2022-08-19T06:15:03;17.90;99.90
13585;DHT22;6863;48.402;9.994;2022-08-19T06:17:29;17.90;99.90
13585;DHT22;6863;48.402;9.994;2022-08-19T06:19:55;17.90;99.90
13585;DHT22;6863;48.402;9.994;2022-08-19T06:22:21;17.90;99.90
13585;DHT22;6863;48.402;9.994;2022-08-19T06:24:47;17.80;99.90
13585;DHT22;6863;48.402;9.994;2022-08-19T06:27:12;17.80;99.90
13585;DHT22;6863;48.402;9.994;2022-08-19T06:29:38;17.80;99.90
13585;DHT22;6863;48.402;9.994;2022-08-19T06:32:04;17.70;99.90
13585;DHT22;6863;48.402;9.994;2022-08-19T06:34:31;17.80;99.90
13585;DHT22;6863;48.402;9.994;2022-08-19T06:36:59;17.80;99.90
13585;DHT22;6863;48.402;9.994;2022-08-19T06:39:32;17.80;99.90
13585;DHT22;6863;48.402;9.994;2022-08-19T06:42:00;17.90;99.90
13585;DHT22;6863;48.402;9.994;2022-08-19T06:44:28;18.00;99.90
13585;DHT22;6863;48.402;9.994;2022-08-19T06:46:55;18.00;99.90
13585;DHT22;6863;48.402;9.994;2022-08-19T06:49:22;17.90;99.90
13585;DHT22;6863;48.402;9.994;2022-08-19T06:51:49;17.90;99.90
13585;DHT22;6863;48.402;9.994;2022-08-19T06:54:17;18.00;99.90
13585;DHT22;6863;48.402;9.994;2022-08-19T06:56:43;17.90;99.90
13585;DHT22;6863;48.402;9.994;2022-08-19T06:59:16;17.90;99.90
13585;DHT22;6863;48.402;9.994;2022-08-19T07:01:51;17.90;99.90
13585;DHT22;6863;48.402;9.994;2022-08-19T07:04:20;17.90;99.90
13585;DHT22;6863;48.402;9.994;2022-08-19T07:06:47;17.90;99.90
13585;DHT22;6863;48.402;9.994;2022-08-19T07:09:14;18.00;99.90
13585;DHT22;6863;48.402;9.994;2022-08-19T07:11:58;18.00;99.90
13585;DHT22;6863;48.402;9.994;2022-08-19T07:14:26;18.00;99.90
13585;DHT22;6863;48.402;9.994;2022-08-19T07:16:54;18.00;99.90
13585;DHT22;6863;48.402;9.994;2022-08-19T07:19:25;18.10;99.90
13585;DHT22;6863;48.402;9.994;2022-08-19T07:21:53;18.00;99.90
13585;DHT22;6863;48.402;9.994;2022-08-19T07:24:20;18.10;99.90
13585;DHT22;6863;48.402;9.994;2022-08-19T07:26:50;18.10;99.90
13585;DHT22;6863;48.402;9.994;2022-08-19T07:29:17;18.20;99.90
13585;DHT22;6863;48.402;9.994;2022-08-19T07:31:43;18.30;99.90
13585;DHT22;6863;48.402;9.994;2022-08-19T07:34:12;18.30;99.90
13585;DHT22;6863;48.402;9.994;2022-08-19T07:36:41;18.30;99.90
13585;DHT22;6863;48.402;9.994;2022-08-19T07:39:11;18.40;99.90
13585;DHT22;6863;48.402;9.994;2022-08-19T07:41:37;18.40;99.90
13585;DHT22;6863;48.402;9.994;2022-08-19T07:44:04;18.40;99.90
13585;DHT22;6863;48.402;9.994;2022-08-19T07:46:36;18.20;99.90
13585;DHT22;6863;48.402;9.994;2022-08-19T07:49:03;18.30;99.90
13585;DHT22;6863;48.402;9.994;2022-08-19T07:51:29;18.10;99.90
13585;DHT22;6863;48.402;9.994;2022-08-19T07:53:55;18.00;99.90
13585;DHT22;6863;48.402;9.994;2022-08-19T07:56:22;18.00;99.90
13585;DHT22;6863;48.402;9.994;2022-08-19T07:58:50;18.00;99.90
13585;DHT22;6863;48.402;9.994;2022-08-19T08:01:20;18.00;99.90
13585;DHT22;6863;48.402;9.994;2022-08-19T08:03:47;18.00;99.90
13585;DHT22;6863;48.402;9.994;2022-08-19T08:06:31;17.90;99.90
13585;DHT22;6863;48.402;9.994;2022-08-19T08:09:26;17.90;99.90
13585;DHT22;6863;48.402;9.994;2022-08-19T08:11:55;17.90;99.90
13585;DHT22;6863;48.402;9.994;2022-08-19T08:14:32;17.90;99.90
13585;DHT22;6863;48.402;9.994;2022-08-19T08:16:58;17.80;99.90
13585;DHT22;6863;48.402;9.994;2022-08-19T08:19:25;17.80;99.90
13585;DHT22;6863;48.402;9.994;2022-08-19T08:21:53;17.80;99.90
13585;DHT22;6863;48.402;9.994;2022-08-19T08:24:19;17.80;99.90
13585;DHT22;6863;48.402;9.994;2022-08-19T08:26:45;17.80;99.90
13585;DHT22;6863;48.402;9.994;2022-08-19T08:29:11;17.90;99.90
13585;DHT22;6863;48.402;9.994;2022-08-19T08:31:41;17.90;99.90
13585;DHT22;6863;48.402;9.994;2022-08-19T08:34:08;18.00;99.90
13585;DHT22;6863;48.402;9.994;2022-08-19T08:36:39;18.10;99.90
13585;DHT22;6863;48.402;9.994;2022-08-19T08:39:08;18.20;99.90
13585;DHT22;6863;48.402;9.994;2022-08-19T08:42:08;18.30;99.90
13585;DHT22;6863;48.402;9.994;2022-08-19T08:44:53;18.30;99.90
13585;DHT22;6863;48.402;9.994;2022-08-19T08:47:23;18.30;99.90
13585;DHT22;6863;48.402;9.994;2022-08-19T08:50:01;18.30;99.90
13585;DHT22;6863;48.402;9.994;2022-08-19T08:52:31;18.30;99.90
13585;DHT22;6863;48.402;9.994;2022-08-19T08:55:10;18.20;99.90
13585;DHT22;6863;48.402;9.994;2022-08-19T09:00:25;18.30;99.90
13585;DHT22;6863;48.402;9.994;2022-08-19T09:02:52;18.40;99.90
13585;DHT22;6863;48.402;9.994;2022-08-19T09:05:19;18.40;99.90
13585;DHT22;6863;48.402;9.994;2022-08-19T09:08:00;18.40;99.90
13585;DHT22;6863;48.402;9.994;2022-08-19T09:11:10;18.40;99.90
13585;DHT22;6863;48.402;9.994;2022-08-19T09:13:57;18.50;99.90
13585;DHT22;6863;48.402;9.994;2022-08-19T09:16:25;18.60;99.90
13585;DHT22;6863;48.402;9.994;2022-08-19T09:18:56;18.60;99.90
13585;DHT22;6863;48.402;9.994;2022-08-19T09:21:24;18.60;99.90
13585;DHT22;6863;48.402;9.994;2022-08-19T09:23:51;18.60;99.90
13585;DHT22;6863;48.402;9.994;2022-08-19T09:26:18;18.60;99.90
13585;DHT22;6863;48.402;9.994;2022-08-19T09:28:46;18.50;99.90
13585;DHT22;6863;48.402;9.994;2022-08-19T09:31:15;18.60;99.90
13585;DHT22;6863;48.402;9.994;2022-08-19T09:33:41;18.60;99.90
13585;DHT22;6863;48.402;9.994;2022-08-19T09:36:12;18.60;99.90
13585;DHT22;6863;48.402;9.994;2022-08-19T09:38:39;18.60;99.90
13585;DHT22;6863;48.402;9.994;2022-08-19T09:41:13;18.70;99.90
13585;DHT22;6863;48.402;9.994;2022-08-19T09:43:40;18.90;99.90
13585;DHT22;6863;48.402;9.994;2022-08-19T09:46:07;19.00;99.90
13585;DHT22;6863;48.402;9.994;2022-08-19T09:48:35;19.00;99.90
13585;DHT22;6863;48.402;9.994;2022-08-19T09:51:10;19.10;99.90
13585;DHT22;6863;48.402;9.994;2022-08-19T09:53:36;19.10;99.90
13585;DHT22;6863;48.402;9.994;2022-08-19T09:56:03;19.00;99.90
13585;DHT22;6863;48.402;9.994;2022-08-19T09:58:29;19.00;99.90
13585;DHT22;6863;48.402;9.994;2022-08-19T10:00:57;19.00;99.90
13585;DHT22;6863;48.402;9.994;2022-08-19T10:03:24;19.10;99.90
13585;DHT22;6863;48.402;9.994;2022-08-19T10:05:49;19.20;99.90
13585;DHT22;6863;48.402;9.994;2022-08-19T10:08:20;19.20;99.90
13585;DHT22;6863;48.402;9.994;2022-08-19T10:10:47;19.40;99.90
13585;DHT22;6863;48.402;9.994;2022-08-19T10:13:15;19.40;99.90
13585;DHT22;6863;48.402;9.994;2022-08-19T10:15:42;19.30;99.90
13585;DHT22;6863;48.402;9.994;2022-08-19T10:18:08;19.50;99.90
13585;DHT22;6863;48.402;9.994;2022-08-19T10:20:34;19.40;99.90
13585;DHT22;6863;48.402;9.994;2022-08-19T10:23:01;19.40;99.90
13585;DHT22;6863;48.402;9.994;2022-08-19T10:25:27;19.30;99.90
13585;DHT22;6863;48.402;9.994;2022-08-19T10:27:53;19.20;99.90
13585;DHT22;6863;48.402;9.994;2022-08-19T10:30:19;19.10;99.90
13585;DHT22;6863;48.402;9.994;2022-08-19T10:32:45;19.00;99.90
13585;DHT22;6863;48.402;9.994;2022-08-19T10:35:12;19.20;99.90
13585;DHT22;6863;48.402;9.994;2022-08-19T10:37:38;19.30;99.90
13585;DHT22;6863;48.402;9.994;2022-08-19T10:40:06;19.20;99.90
13585;DHT22;6863;48.402;9.994;2022-08-19T10:42:33;19.10;99.90
13585;DHT22;6863;48.402;9.994;2022-08-19T10:44:58;19.10;99.90
13585;DHT22;6863;48.402;9.994;2022-08-19T10:47:24;19.10;99.90
13585;DHT22;6863;48.402;9.994;2022-08-19T10:49:50;19.00;99.90
13585;DHT22;6863;48.402;9.994;2022-08-19T10:52:49;18.90;99.90
13585;DHT22;6863;48.402;9.994;2022-08-19T10:55:15;18.80;99.90
13585;DHT22;6863;48.402;9.994;2022-08-19T10:57:59;18.70;99.90
13585;DHT22;6863;48.402;9.994;2022-08-19T11:00:25;18.70;99.90
13585;DHT22;6863;48.402;9.994;2022-08-19T11:02:51;18.70;99.90
13585;DHT22;6863;48.402;9.994;2022-08-19T11:05:18;18.70;99.90
13585;DHT22;6863;48.402;9.994;2022-08-19T11:07:44;18.60;99.90
13585;DHT22;6863;48.402;9.994;2022-08-19T11:10:12;18.50;99.90
13585;DHT22;6863;48.402;9.994;2022-08-19T11:12:39;18.40;99.90
13585;DHT22;6863;48.402;9.994;2022-08-19T11:15:07;18.30;99.90
13585;DHT22;6863;48.402;9.994;2022-08-19T11:17:34;18.40;99.90
13585;DHT22;6863;48.402;9.994;2022-08-19T11:19:59;18.30;99.90
13585;DHT22;6863;48.402;9.994;2022-08-19T11:22:28;18.10;99.90
13585;DHT22;6863;48.402;9.994;2022-08-19T11:24:54;17.90;99.90
13585;DHT22;6863;48.402;9.994;2022-08-19T11:27:24;17.80;99.90
13585;DHT22;6863;48.402;9.994;2022-08-19T11:29:49;17.80;99.90
13585;DHT22;6863;48.402;9.994;2022-08-19T11:32:15;17.80;99.90
13585;DHT22;6863;48.402;9.994;2022-08-19T11:34:41;17.80;99.90
13585;DHT22;6863;48.402;9.994;2022-08-19T11:37:07;17.60;99.90
13585;DHT22;6863;48.402;9.994;2022-08-19T11:39:34;17.50;99.90
13585;DHT22;6863;48.402;9.994;2022-08-19T11:42:02;17.50;99.90
13585;DHT22;6863;48.402;9.994;2022-08-19T11:44:52;17.40;99.90
13585;DHT22;6863;48.402;9.994;2022-08-19T11:47:19;17.40;99.90
13585;DHT22;6863;48.402;9.994;2022-08-19T11:49:46;17.40;99.90
13585;DHT22;6863;48.402;9.994;2022-08-19T11:52:12;17.30;99.90
13585;DHT22;6863;48.402;9.994;2022-08-19T11:54:37;17.40;99.90
13585;DHT22;6863;48.402;9.994;2022-08-19T11:57:03;17.40;99.90
13585;DHT22;6863;48.402;9.994;2022-08-19T11:59:29;17.40;99.90
13585;DHT22;6863;48.402;9.994;2022-08-19T12:01:55;17.40;99.90
13585;DHT22;6863;48.402;9.994;2022-08-19T12:04:23;17.40;99.90
13585;DHT22;6863;48.402;9.994;2022-08-19T12:06:48;17.40;99.90
13585;DHT22;6863;48.402;9.994;2022-08-19T12:09:16;17.40;99.90
13585;DHT22;6863;48.402;9.994;2022-08-19T12:11:43;17.40;99.90
13585;DHT22;6863;48.402;9.994;2022-08-19T12:14:11;17.40;99.90
13585;DHT22;6863;48.402;9.994;2022-08-19T12:16:38;17.50;99.90
13585;DHT22;6863;48.402;9.994;2022-08-19T12:19:05;17.50;99.90
13585;DHT22;6863;48.402;9.994;2022-08-19T12:21:33;17.50;99.90
13585;DHT22;6863;48.402;9.994;2022-08-19T12:24:00;17.50;99.90
13585;DHT22;6863;48.402;9.994;2022-08-19T12:26:27;17.60;99.90
13585;DHT22;6863;48.402;9.994;2022-08-19T12:28:54;17.70;99.90
13585;DHT22;6863;48.402;9.994;2022-08-19T12:31:19;17.70;99.90
13585;DHT22;6863;48.402;9.994;2022-08-19T12:33:46;17.70;99.90
13585;DHT22;6863;48.402;9.994;2022-08-19T12:36:14;17.60;99.90
13585;DHT22;6863;48.402;9.994;2022-08-19T12:38:41;17.60;99.90
13585;DHT22;6863;48.402;9.994;2022-08-19T12:41:09;17.60;99.90
13585;DHT22;6863;48.402;9.994;2022-08-19T12:43:36;17.70;99.90
13585;DHT22;6863;48.402;9.994;2022-08-19T12:46:03;17.80;99.90
13585;DHT22;6863;48.402;9.994;2022-08-19T12:48:30;17.80;99.90
13585;DHT22;6863;48.402;9.994;2022-08-19T12:50:56;17.80;99.90
13585;DHT22;6863;48.402;9.994;2022-08-19T12:53:22;17.80;99.90
13585;DHT22;6863;48.402;9.994;2022-08-19T12:55:47;17.90;99.90
13585;DHT22;6863;48.402;9.994;2022-08-19T12:58:13;17.90;99.90
13585;DHT22;6863;48.402;9.994;2022-08-19T13:00:39;17.90;99.90
13585;DHT22;6863;48.402;9.994;2022-08-19T13:03:05;17.90;99.90
13585;DHT22;6863;48.402;9.994;2022-08-19T13:05:32;17.90;99.90
13585;DHT22;6863;48.402;9.994;2022-08-19T13:07:59;17.90;99.90
13585;DHT22;6863;48.402;9.994;2022-08-19T13:10:31;17.90;99.90
13585;DHT22;6863;48.402;9.994;2022-08-19T13:13:00;17.90;99.90
13585;DHT22;6863;48.402;9.994;2022-08-19T13:15:27;18.00;99.90
13585;DHT22;6863;48.402;9.994;2022-08-19T13:17:57;18.10;99.90
13585;DHT22;6863;48.402;9.994;2022-08-19T13:20:24;18.20;99.90
13585;DHT22;6863;48.402;9.994;2022-08-19T13:22:50;18.20;99.90
13585;DHT22;6863;48.402;9.994;2022-08-19T13:25:16;18.30;99.90
13585;DHT22;6863;48.402;9.994;2022-08-19T13:27:44;18.20;99.90
13585;DHT22;6863;48.402;9.994;2022-08-19T13:30:13;18.10;99.90
13585;DHT22;6863;48.402;9.994;2022-08-19T13:32:57;18.00;99.90
13585;DHT22;6863;48.402;9.994;2022-08-19T13:35:36;17.90;99.90
13585;DHT22;6863;48.402;9.994;2022-08-19T13:38:02;17.80;99.90
13585;DHT22;6863;48.402;9.994;2022-08-19T13:40:30;17.70;99.90
13585;DHT22;6863;48.402;9.994;2022-08-19T13:42:57;17.70;99.90
13585;DHT22;6863;48.402;9.994;2022-08-19T13:45:24;17.60;99.90
13585;DHT22;6863;48.402;9.994;2022-08-19T13:47:53;17.60;99.90
13585;DHT22;6863;48.402;9.994;2022-08-19T13:50:22;17.60;99.90
13585;DHT22;6863;48.402;9.994;2022-08-19T13:52:48;17.60;99.90
13585;DHT22;6863;48.402;9.994;2022-08-19T13:55:14;17.60;99.90
13585;DHT22;6863;48.402;9.994;2022-08-19T13:57:41;17.60;99.90
13585;DHT22;6863;48.402;9.994;2022-08-19T14:00:17;17.60;99.90
13585;DHT22;6863;48.402;9.994;2022-08-19T14:02:44;17.60;99.90
13585;DHT22;6863;48.402;9.994;2022-08-19T14:05:13;17.50;99.90
13585;DHT22;6863;48.402;9.994;2022-08-19T14:07:38;17.60;99.90
13585;DHT22;6863;48.402;9.994;2022-08-19T14:10:06;17.60;99.90
13585;DHT22;6863;48.402;9.994;2022-08-19T14:12:33;17.60;99.90
13585;DHT22;6863;48.402;9.994;2022-08-19T14:14:59;17.70;99.90
13585;DHT22;6863;48.402;9.994;2022-08-19T14:17:24;17.60;99.90
13585;DHT22;6863;48.402;9.994;2022-08-19T14:19:57;17.60;99.90
13585;DHT22;6863;48.402;9.994;2022-08-19T14:22:22;17.60;99.90
13585;DHT22;6863;48.402;9.994;2022-08-19T14:24:48;17.60;99.90
13585;DHT22;6863;48.402;9.994;2022-08-19T14:27:15;17.60;99.90
13585;DHT22;6863;48.402;9.994;2022-08-19T14:29:40;17.60;99.90
13585;DHT22;6863;48.402;9.994;2022-08-19T14:32:06;17.60;99.90
13585;DHT22;6863;48.402;9.994;2022-08-19T14:34:32;17.60;99.90
13585;DHT22;6863;48.402;9.994;2022-08-19T14:36:59;17.60;99.90
13585;DHT22;6863;48.402;9.994;2022-08-19T14:39:25;17.60;99.90
13585;DHT22;6863;48.402;9.994;2022-08-19T14:41:50;17.60;99.90
13585;DHT22;6863;48.402;9.994;2022-08-19T14:44:16;17.60;99.90
13585;DHT22;6863;48.402;9.994;2022-08-19T14:46:42;17.60;99.90
13585;DHT22;6863;48.402;9.994;2022-08-19T14:49:08;17.60;99.90
13585;DHT22;6863;48.402;9.994;2022-08-19T14:51:34;17.70;99.90
13585;DHT22;6863;48.402;9.994;2022-08-19T14:54:00;17.60;99.90
13585;DHT22;6863;48.402;9.994;2022-08-19T14:56:28;17.70;99.90
13585;DHT22;6863;48.402;9.994;2022-08-19T14:58:54;17.70;99.90
13585;DHT22;6863;48.402;9.994;2022-08-19T15:01:21;17.70;99.90
13585;DHT22;6863;48.402;9.994;2022-08-19T15:03:48;17.60;99.90
13585;DHT22;6863;48.402;9.994;2022-08-19T15:06:14;17.70;99.90
13585;DHT22;6863;48.402;9.994;2022-08-19T15:08:41;17.60;99.90
13585;DHT22;6863;48.402;9.994;2022-08-19T15:11:12;17.70;99.90
13585;DHT22;6863;48.402;9.994;2022-08-19T15:13:40;17.70;99.90
13585;DHT22;6863;48.402;9.994;2022-08-19T15:16:06;17.70;99.90
13585;DHT22;6863;48.402;9.994;2022-08-19T15:18:32;17.70;99.90
13585;DHT22;6863;48.402;9.994;2022-08-19T15:20:58;17.70;99.90
13585;DHT22;6863;48.402;9.994;2022-08-19T15:23:25;17.90;99.90
13585;DHT22;6863;48.402;9.994;2022-08-19T15:25:54;17.80;99.90
13585;DHT22;6863;48.402;9.994;2022-08-19T15:28:26;17.80;99.90
13585;DHT22;6863;48.402;9.994;2022-08-19T15:30:52;17.90;99.90
13585;DHT22;6863;48.402;9.994;2022-08-19T15:33:18;17.90;99.90
13585;DHT22;6863;48.402;9.994;2022-08-19T15:35:46;18.00;99.90
13585;DHT22;6863;48.402;9.994;2022-08-19T15:38:13;17.90;99.90
13585;DHT22;6863;48.402;9.994;2022-08-19T15:40:40;18.00;99.90
13585;DHT22;6863;48.402;9.994;2022-08-19T15:43:07;18.00;99.90
13585;DHT22;6863;48.402;9.994;2022-08-19T15:45:33;18.00;99.90
13585;DHT22;6863;48.402;9.994;2022-08-19T15:48:00;18.00;99.90
13585;DHT22;6863;48.402;9.994;2022-08-19T15:50:26;18.00;99.90
13585;DHT22;6863;48.402;9.994;2022-08-19T15:52:55;17.80;99.90
13585;DHT22;6863;48.402;9.994;2022-08-19T15:55:28;17.90;99.90
13585;DHT22;6863;48.402;9.994;2022-08-19T15:57:54;17.90;99.90